Time;durP1;ratioP1;P1;durP2;ratioP2;P2;SDS_P1;SDS_P2;PMS_P1;PMS_P2;Temp;Humidity;BMP_temperature;BMP_pressure;BME280_temperature;BME280_humidity;BME280_pressure;Samples;Min_cycle;Max_cycle;Signal;HPM_P1;HPM_P2
2023/07/23 00:01:47;;;;;;;1.30;0.20;;;19.50;72.70;;;;;;5087491;28;20119;-75
2023/07/23 00:04:14;;;;;;;2.97;1.15;;;19.50;72.80;;;;;;5082681;28;20647;-73
2023/07/23 00:06:40;;;;;;;0.65;0.28;;;19.50;72.90;;;;;;5089141;28;20123;-81
2023/07/23 00:09:07;;;;;;;0.28;0.20;;;19.50;72.90;;;;;;5089689;28;20118;-83
2023/07/23 00:11:32;;;;;;;0.22;0.22;;;19.50;73.00;;;;;;5085385;28;20099;-80
2023/07/23 00:13:58;;;;;;;2.08;0.30;;;19.40;72.90;;;;;;5089384;28;20605;-76
2023/07/23 00:16:24;;;;;;;1.10;0.30;;;19.40;72.90;;;;;;5088855;28;20036;-76
2023/07/23 00:18:50;;;;;;;1.13;0.43;;;19.40;73.00;;;;;;5079072;28;20438;-81
2023/07/23 00:21:16;;;;;;;2.00;0.32;;;19.40;73.00;;;;;;5086366;28;20071;-71
2023/07/23 00:23:42;;;;;;;2.17;0.40;;;19.40;73.10;;;;;;5079989;28;20092;-74
2023/07/23 00:26:08;;;;;;;3.80;0.60;;;19.40;73.20;;;;;;5088090;28;20439;-73
2023/07/23 00:28:34;;;;;;;1.20;0.28;;;19.40;73.30;;;;;;5090083;28;20039;-70
2023/07/23 00:31:01;;;;;;;1.20;0.30;;;19.40;73.30;;;;;;5085642;28;20032;-72
2023/07/23 00:33:27;;;;;;;0.50;0.15;;;19.40;73.40;;;;;;5086840;28;20364;-71
2023/07/23 00:35:53;;;;;;;0.20;0.20;;;19.40;73.40;;;;;;5083571;28;20110;-69
2023/07/23 00:38:19;;;;;;;0.93;0.50;;;19.40;73.50;;;;;;5087086;28;20040;-69
2023/07/23 00:40:47;;;;;;;0.40;0.40;;;19.40;73.50;;;;;;5080625;28;20571;-69
2023/07/23 00:43:13;;;;;;;0.30;0.30;;;19.40;73.60;;;;;;5080203;28;20496;-70
2023/07/23 00:45:39;;;;;;;1.05;0.20;;;19.30;73.50;;;;;;5089328;28;20036;-69
2023/07/23 00:48:06;;;;;;;0.40;0.20;;;19.30;73.50;;;;;;5079217;28;20577;-71
2023/07/23 00:50:32;;;;;;;0.30;0.30;;;19.30;73.60;;;;;;5086085;28;20027;-72
2023/07/23 00:52:58;;;;;;;4.43;0.98;;;19.30;73.60;;;;;;5077025;28;20564;-70
2023/07/23 00:55:26;;;;;;;0.30;0.20;;;19.30;73.70;;;;;;5076914;28;20127;-71
2023/07/23 00:57:53;;;;;;;0.22;0.10;;;19.30;73.80;;;;;;5062607;28;20027;-71
2023/07/23 01:00:19;;;;;;;0.40;0.10;;;19.30;73.80;;;;;;5078695;28;20211;-70
2023/07/23 01:02:47;;;;;;;0.65;0.20;;;19.30;73.90;;;;;;5067764;28;20061;-73
2023/07/23 01:05:13;;;;;;;0.80;0.30;;;19.30;74.00;;;;;;5086485;28;20059;-71
2023/07/23 01:07:41;;;;;;;0.30;0.30;;;19.30;74.10;;;;;;5084662;28;20055;-68
2023/07/23 01:10:09;;;;;;;1.88;0.20;;;19.30;74.10;;;;;;5086144;28;20032;-69
2023/07/23 01:12:37;;;;;;;1.40;0.25;;;19.30;74.10;;;;;;5080784;28;20043;-68
2023/07/23 01:15:05;;;;;;;0.40;0.30;;;19.30;74.20;;;;;;5085773;28;20024;-74
2023/07/23 01:17:32;;;;;;;1.35;0.35;;;19.20;74.10;;;;;;5089010;28;20028;-68
2023/07/23 01:20:01;;;;;;;0.80;0.45;;;19.30;74.20;;;;;;5076111;28;20113;-71
2023/07/23 01:22:27;;;;;;;2.78;0.40;;;19.20;74.20;;;;;;5089241;28;20463;-68
2023/07/23 01:24:53;;;;;;;3.90;1.40;;;19.20;74.20;;;;;;5078747;28;20042;-67
2023/07/23 01:27:20;;;;;;;1.17;0.45;;;19.20;74.30;;;;;;5082697;28;20032;-68
2023/07/23 01:29:46;;;;;;;1.55;0.63;;;19.30;74.50;;;;;;5086781;28;20272;-69
2023/07/23 01:32:12;;;;;;;0.82;0.50;;;19.20;74.30;;;;;;5086382;28;20602;-69
2023/07/23 01:34:38;;;;;;;1.25;0.70;;;19.20;74.30;;;;;;5078124;28;20048;-71
2023/07/23 01:37:05;;;;;;;3.25;0.95;;;19.20;74.40;;;;;;5085945;28;20134;-68
2023/07/23 01:39:32;;;;;;;1.60;0.50;;;19.20;74.40;;;;;;5078582;28;20044;-70
2023/07/23 01:41:58;;;;;;;2.55;0.73;;;19.20;74.50;;;;;;5081512;28;20062;-68
2023/07/23 01:44:25;;;;;;;1.02;0.40;;;19.20;74.50;;;;;;5082247;28;20040;-72
2023/07/23 01:46:51;;;;;;;2.67;0.60;;;19.20;74.60;;;;;;5083371;28;20032;-67
2023/07/23 01:49:17;;;;;;;1.73;0.60;;;19.20;74.70;;;;;;5075674;28;20044;-70
2023/07/23 01:51:43;;;;;;;2.40;0.50;;;19.20;74.70;;;;;;5091790;28;20411;-74
2023/07/23 01:54:08;;;;;;;2.53;0.82;;;19.20;74.70;;;;;;5087784;28;20032;-74
2023/07/23 01:56:34;;;;;;;2.85;0.63;;;19.20;74.80;;;;;;5087651;28;20256;-67
2023/07/23 01:59:01;;;;;;;2.47;0.90;;;19.20;74.80;;;;;;5064250;28;20040;-69
2023/07/23 02:01:29;;;;;;;1.65;0.90;;;19.20;74.80;;;;;;5092859;28;20050;-67
2023/07/23 02:03:55;;;;;;;4.50;1.48;;;19.20;74.80;;;;;;5088508;28;20068;-70
2023/07/23 02:06:21;;;;;;;4.50;2.13;;;19.20;74.80;;;;;;5093387;28;20070;-68
2023/07/23 02:08:47;;;;;;;3.05;1.50;;;19.10;74.80;;;;;;5081996;28;20785;-70
2023/07/23 02:11:13;;;;;;;5.32;1.52;;;19.10;74.70;;;;;;5088717;28;20038;-70
2023/07/23 02:13:39;;;;;;;3.08;1.92;;;19.10;74.80;;;;;;5086645;28;20535;-70
2023/07/23 02:16:05;;;;;;;3.65;1.83;;;19.10;74.70;;;;;;5090129;28;20079;-70
2023/07/23 02:18:32;;;;;;;2.88;1.48;;;19.10;74.70;;;;;;5088249;28;20071;-72
2023/07/23 02:20:58;;;;;;;4.07;1.92;;;19.10;74.80;;;;;;5090188;28;20123;-70
2023/07/23 02:23:24;;;;;;;4.72;1.88;;;19.10;74.70;;;;;;5074410;28;20170;-71
2023/07/23 02:25:50;;;;;;;4.00;1.92;;;19.10;74.70;;;;;;5088559;28;20694;-68
2023/07/23 02:28:16;;;;;;;4.50;2.17;;;19.10;74.80;;;;;;5088769;28;20117;-69
2023/07/23 02:30:42;;;;;;;3.03;1.55;;;19.10;74.80;;;;;;5089424;28;20659;-73
2023/07/23 02:33:08;;;;;;;5.22;1.50;;;19.10;74.90;;;;;;5091160;28;20032;-73
2023/07/23 02:35:38;;;;;;;3.15;1.52;;;19.10;74.90;;;;;;5080939;28;20047;-78
2023/07/23 02:38:04;;;;;;;5.22;2.03;;;19.10;74.90;;;;;;5068461;28;20033;-74
2023/07/23 02:40:32;;;;;;;5.78;1.77;;;19.10;74.90;;;;;;5092327;28;20040;-82
2023/07/23 02:42:58;;;;;;;5.65;2.38;;;19.10;75.00;;;;;;5079874;28;20108;-71
2023/07/23 02:45:24;;;;;;;6.55;2.28;;;19.10;75.00;;;;;;5101000;28;20609;-71
2023/07/23 02:47:50;;;;;;;2.50;1.65;;;19.10;75.00;;;;;;5101362;28;20024;-71
2023/07/23 02:50:16;;;;;;;6.30;2.53;;;19.10;75.00;;;;;;5097776;28;20028;-72
2023/07/23 02:52:42;;;;;;;4.05;2.22;;;19.10;75.00;;;;;;5105393;28;20024;-71
2023/07/23 02:55:08;;;;;;;3.35;1.60;;;19.10;75.00;;;;;;5103142;28;20151;-73
2023/07/23 02:57:34;;;;;;;3.13;1.50;;;19.00;74.80;;;;;;5099081;28;20116;-69
2023/07/23 03:00:00;;;;;;;3.15;1.80;;;19.00;74.90;;;;;;5094178;28;20130;-72
2023/07/23 03:02:26;;;;;;;3.80;1.90;;;19.00;74.90;;;;;;5097100;28;20430;-81
2023/07/23 03:04:52;;;;;;;3.47;2.00;;;19.00;74.90;;;;;;5091529;28;20085;-69
2023/07/23 03:07:18;;;;;;;2.58;1.90;;;19.00;75.00;;;;;;5090051;28;20096;-72
2023/07/23 03:09:44;;;;;;;5.18;2.17;;;19.00;75.50;;;;;;5098246;28;20491;-71
2023/07/23 03:12:10;;;;;;;3.55;1.60;;;19.00;75.00;;;;;;5094572;28;20714;-75
2023/07/23 03:14:36;;;;;;;2.55;1.58;;;19.00;75.00;;;;;;5092321;28;20057;-71
2023/07/23 03:17:02;;;;;;;2.20;1.63;;;19.00;75.00;;;;;;5099840;28;20034;-70
2023/07/23 03:19:28;;;;;;;3.08;1.55;;;19.00;75.00;;;;;;5095391;28;20044;-71
2023/07/23 03:21:54;;;;;;;3.40;1.70;;;19.00;75.10;;;;;;5098901;28;20502;-73
2023/07/23 03:24:20;;;;;;;4.07;2.22;;;19.00;75.10;;;;;;5091814;28;20044;-73
2023/07/23 03:26:46;;;;;;;4.38;1.92;;;19.00;75.10;;;;;;5100497;28;20055;-76
2023/07/23 03:29:12;;;;;;;4.55;2.10;;;18.90;74.90;;;;;;5096523;28;20055;-69
2023/07/23 03:31:38;;;;;;;4.43;1.90;;;19.00;75.10;;;;;;5097928;27;20060;-70
2023/07/23 03:34:03;;;;;;;3.80;1.92;;;19.00;75.10;;;;;;5089063;28;20052;-70
2023/07/23 03:36:29;;;;;;;5.22;1.92;;;18.90;75.00;;;;;;5100396;28;20032;-74
2023/07/23 03:38:55;;;;;;;4.80;2.25;;;18.90;75.00;;;;;;5097201;28;20054;-70
2023/07/23 03:41:23;;;;;;;4.18;1.60;;;18.90;75.00;;;;;;5081288;28;20062;-74
2023/07/23 03:43:49;;;;;;;5.85;2.50;;;18.90;75.00;;;;;;5091354;28;20085;-75
2023/07/23 03:46:14;;;;;;;4.43;1.70;;;18.90;75.00;;;;;;5084919;28;20062;-75
2023/07/23 03:48:41;;;;;;;5.20;1.85;;;18.90;75.10;;;;;;5081224;28;20052;-73
2023/07/23 03:51:07;;;;;;;7.07;2.25;;;18.90;75.10;;;;;;5094419;28;20024;-72
2023/07/23 03:53:33;;;;;;;7.13;2.15;;;19.00;75.30;;;;;;5082400;28;20052;-72
2023/07/23 03:55:59;;;;;;;7.78;2.00;;;18.90;75.10;;;;;;5092940;28;20348;-69
2023/07/23 03:58:25;;;;;;;6.25;1.88;;;18.90;75.70;;;;;;5074890;28;20300;-71
2023/07/23 04:00:51;;;;;;;4.05;1.80;;;18.90;75.20;;;;;;5100013;28;20061;-71
2023/07/23 04:03:17;;;;;;;5.97;2.35;;;18.90;75.30;;;;;;5095288;28;20052;-70
2023/07/23 04:05:43;;;;;;;4.65;1.88;;;18.90;75.20;;;;;;5089202;28;20127;-71
2023/07/23 04:08:09;;;;;;;6.28;2.08;;;18.90;75.30;;;;;;5096649;28;20032;-75
2023/07/23 04:10:35;;;;;;;4.47;1.08;;;18.90;75.30;;;;;;5098552;28;20043;-73
2023/07/23 04:13:03;;;;;;;3.00;1.33;;;18.90;75.40;;;;;;5097901;28;20056;-75
2023/07/23 04:15:31;;;;;;;5.55;1.90;;;18.90;75.40;;;;;;5081890;28;20601;-70
2023/07/23 04:17:57;;;;;;;3.13;1.55;;;18.90;75.40;;;;;;5090934;28;20127;-71
2023/07/23 04:20:23;;;;;;;4.43;1.88;;;18.90;75.50;;;;;;5077520;28;20489;-70
2023/07/23 04:22:48;;;;;;;3.92;1.60;;;18.90;75.50;;;;;;5090818;28;20146;-68
2023/07/23 04:25:14;;;;;;;5.53;1.73;;;18.90;75.50;;;;;;5086523;28;20066;-73
2023/07/23 04:27:40;;;;;;;5.38;1.73;;;18.90;75.50;;;;;;5081096;28;20592;-72
2023/07/23 04:30:07;;;;;;;7.05;2.45;;;18.80;75.40;;;;;;5081719;28;20047;-71
2023/07/23 04:32:33;;;;;;;5.43;1.70;;;18.90;75.60;;;;;;5085849;28;20032;-70
2023/07/23 04:34:59;;;;;;;7.65;2.05;;;18.90;75.60;;;;;;5088392;28;20078;-70
2023/07/23 04:37:26;;;;;;;6.53;2.25;;;18.90;75.70;;;;;;5082820;28;20040;-68
2023/07/23 04:39:52;;;;;;;7.93;3.05;;;18.90;75.70;;;;;;5085910;28;20082;-69
2023/07/23 04:42:18;;;;;;;6.70;1.65;;;18.90;75.70;;;;;;5085098;28;20500;-70
2023/07/23 04:44:44;;;;;;;4.85;1.73;;;18.90;75.70;;;;;;5085476;28;20357;-70
2023/07/23 04:47:09;;;;;;;4.97;1.40;;;18.90;75.70;;;;;;5085862;28;20016;-67
2023/07/23 04:49:35;;;;;;;6.78;1.73;;;18.90;75.70;;;;;;5082945;28;20028;-69
2023/07/23 04:52:02;;;;;;;6.75;1.80;;;18.90;75.70;;;;;;5090031;28;20024;-69
2023/07/23 04:54:28;;;;;;;6.13;2.10;;;18.90;75.70;;;;;;5082639;28;20074;-70
2023/07/23 04:56:54;;;;;;;5.78;1.98;;;18.90;75.70;;;;;;5084033;28;20060;-70
2023/07/23 04:59:20;;;;;;;6.68;2.08;;;18.90;75.70;;;;;;5084183;28;20101;-70
2023/07/23 05:01:46;;;;;;;4.13;1.35;;;18.90;75.70;;;;;;5085454;28;20036;-70
2023/07/23 05:04:12;;;;;;;6.47;1.77;;;18.90;75.70;;;;;;5082033;28;20036;-69
2023/07/23 05:06:37;;;;;;;4.07;1.15;;;18.90;75.70;;;;;;5091796;28;20392;-73
2023/07/23 05:09:03;;;;;;;6.32;1.27;;;18.90;75.70;;;;;;5080379;28;20032;-73
2023/07/23 05:11:29;;;;;;;5.63;1.35;;;18.90;75.60;;;;;;5083080;28;20035;-73
2023/07/23 05:13:55;;;;;;;3.72;1.35;;;18.90;75.60;;;;;;5083076;28;20085;-72
2023/07/23 05:16:21;;;;;;;4.55;1.42;;;18.90;75.70;;;;;;5083790;28;20137;-70
2023/07/23 05:18:47;;;;;;;3.55;1.40;;;18.90;75.70;;;;;;5076806;28;20148;-74
2023/07/23 05:21:13;;;;;;;4.20;1.45;;;18.90;75.80;;;;;;5082828;28;20052;-71
2023/07/23 05:23:39;;;;;;;3.22;1.38;;;18.90;75.70;;;;;;5083628;28;20090;-70
2023/07/23 05:26:05;;;;;;;3.28;1.63;;;18.90;75.80;;;;;;5086815;28;20543;-70
2023/07/23 05:28:31;;;;;;;4.85;1.83;;;18.90;75.80;;;;;;5101868;28;20123;-71
2023/07/23 05:30:58;;;;;;;6.65;1.45;;;18.90;76.30;;;;;;5082333;28;20051;-74
2023/07/23 05:33:24;;;;;;;3.85;0.93;;;18.90;76.40;;;;;;5084173;28;20028;-76
2023/07/23 05:35:52;;;;;;;6.90;1.75;;;18.90;75.90;;;;;;5098975;28;20032;-73
2023/07/23 05:38:18;;;;;;;6.20;2.10;;;19.00;76.20;;;;;;5092764;28;20036;-69
2023/07/23 05:41:00;;;;;;;8.20;2.50;;;19.00;76.30;;;;;;5081415;28;20028;-71
2023/07/23 05:43:26;;;;;;;4.40;1.58;;;19.00;76.80;;;;;;5078935;28;20032;-69
2023/07/23 05:45:52;;;;;;;4.13;1.27;;;19.10;76.80;;;;;;5082606;28;20035;-70
2023/07/23 05:48:18;;;;;;;3.97;1.33;;;19.20;77.00;;;;;;5080882;28;20362;-72
2023/07/23 05:50:44;;;;;;;6.50;1.45;;;19.30;77.10;;;;;;5083641;28;20086;-72
2023/07/23 05:53:11;;;;;;;4.88;1.65;;;19.40;77.10;;;;;;5093976;28;20081;-75
2023/07/23 05:55:37;;;;;;;3.33;1.20;;;19.50;77.10;;;;;;5084018;28;20032;-72
2023/07/23 05:58:02;;;;;;;6.00;1.43;;;19.60;77.20;;;;;;5083176;28;20028;-81
2023/07/23 06:00:29;;;;;;;5.25;1.67;;;19.70;77.20;;;;;;5083666;28;20066;-80
2023/07/23 06:02:55;;;;;;;5.20;1.50;;;19.80;77.20;;;;;;5083286;28;20027;-79
2023/07/23 06:05:21;;;;;;;3.75;1.20;;;19.80;77.00;;;;;;5081607;28;20032;-74
2023/07/23 06:07:47;;;;;;;5.63;2.00;;;19.90;77.00;;;;;;5085777;28;20114;-75
2023/07/23 06:10:13;;;;;;;5.13;1.40;;;19.90;76.80;;;;;;5084560;28;20377;-75
2023/07/23 06:12:39;;;;;;;6.55;1.40;;;20.00;76.90;;;;;;5082323;28;20034;-75
2023/07/23 06:15:05;;;;;;;3.30;1.10;;;20.00;76.80;;;;;;5084819;28;20040;-79
2023/07/23 06:17:31;;;;;;;8.88;2.28;;;20.00;76.60;;;;;;5084415;28;20020;-73
2023/07/23 06:19:57;;;;;;;5.38;1.60;;;20.00;76.50;;;;;;5079923;28;20035;-71
2023/07/23 06:22:24;;;;;;;5.05;1.50;;;20.10;76.60;;;;;;5084640;28;20067;-73
2023/07/23 06:24:50;;;;;;;3.72;1.52;;;20.10;76.60;;;;;;5083320;28;20046;-76
2023/07/23 06:27:15;;;;;;;7.20;1.75;;;20.10;76.50;;;;;;5083933;28;20122;-77
2023/07/23 06:29:41;;;;;;;4.00;1.50;;;20.10;76.40;;;;;;5081874;28;20028;-75
2023/07/23 06:32:09;;;;;;;7.80;1.60;;;20.10;76.40;;;;;;5088613;28;20111;-74
2023/07/23 06:34:35;;;;;;;6.15;1.67;;;20.10;76.30;;;;;;5083925;28;20070;-71
2023/07/23 06:37:01;;;;;;;5.50;1.75;;;20.20;76.40;;;;;;5087713;28;20408;-72
2023/07/23 06:39:28;;;;;;;5.13;2.00;;;20.10;76.20;;;;;;5086191;28;20046;-72
2023/07/23 06:41:54;;;;;;;5.38;1.80;;;20.10;76.30;;;;;;5078035;28;20134;-78
2023/07/23 06:44:20;;;;;;;7.75;1.50;;;20.10;76.30;;;;;;5079547;28;20035;-75
2023/07/23 06:46:46;;;;;;;6.80;1.85;;;20.20;76.40;;;;;;5085848;28;20036;-71
2023/07/23 06:49:13;;;;;;;4.30;1.45;;;20.30;76.50;;;;;;5096979;28;20043;-70
2023/07/23 06:51:39;;;;;;;7.60;2.00;;;20.30;76.40;;;;;;5095786;28;20063;-70
2023/07/23 06:54:05;;;;;;;8.23;2.58;;;20.40;76.50;;;;;;5097421;28;20035;-73
2023/07/23 06:56:31;;;;;;;5.40;1.67;;;20.40;76.40;;;;;;5077185;28;20341;-74
2023/07/23 06:58:57;;;;;;;3.78;1.52;;;20.50;76.40;;;;;;5096722;28;20052;-71
2023/07/23 07:01:24;;;;;;;7.05;1.55;;;20.50;76.30;;;;;;5087324;28;20043;-76
2023/07/23 07:03:50;;;;;;;5.78;1.92;;;20.60;76.30;;;;;;5083196;28;20028;-73
2023/07/23 07:06:16;;;;;;;5.10;2.25;;;20.60;76.10;;;;;;5079908;28;20051;-70
2023/07/23 07:08:43;;;;;;;9.85;2.38;;;20.70;76.10;;;;;;5084151;28;20024;-74
2023/07/23 07:11:10;;;;;;;6.40;2.13;;;20.80;76.00;;;;;;5077799;28;20024;-69
2023/07/23 07:13:37;;;;;;;3.35;1.70;;;20.90;75.90;;;;;;5082567;28;20485;-71
2023/07/23 07:16:03;;;;;;;7.72;2.00;;;21.00;75.80;;;;;;5080617;28;20040;-72
2023/07/23 07:18:29;;;;;;;7.50;1.40;;;21.10;75.70;;;;;;5080688;28;20039;-72
2023/07/23 07:20:59;;;;;;;6.15;2.15;;;21.20;75.60;;;;;;5076350;28;20082;-78
2023/07/23 07:23:30;;;;;;;4.85;1.75;;;21.20;75.30;;;;;;5081638;28;20808;-69
2023/07/23 07:25:58;;;;;;;6.88;2.00;;;21.30;75.20;;;;;;5084739;28;20373;-76
2023/07/23 07:28:25;;;;;;;4.80;1.95;;;21.40;75.80;;;;;;5089766;28;20066;-72
2023/07/23 07:30:55;;;;;;;4.05;2.08;;;21.50;75.30;;;;;;5082419;28;20062;-71
2023/07/23 07:33:21;;;;;;;7.68;2.33;;;21.60;75.10;;;;;;5086610;28;20032;-73
2023/07/23 07:35:49;;;;;;;4.93;2.33;;;21.80;74.90;;;;;;5085782;28;20159;-73
2023/07/23 07:38:15;;;;;;;4.93;1.67;;;21.90;74.70;;;;;;5088334;28;20514;-70
2023/07/23 07:40:42;;;;;;;6.32;2.08;;;21.90;74.50;;;;;;5086083;28;20048;-69
2023/07/23 07:43:08;;;;;;;3.38;1.70;;;22.00;74.50;;;;;;5082099;28;20505;-70
2023/07/23 07:45:34;;;;;;;6.28;2.40;;;22.10;74.30;;;;;;5072935;28;20032;-71
2023/07/23 07:48:01;;;;;;;3.25;1.80;;;22.20;74.30;;;;;;5076189;28;20063;-72
2023/07/23 07:50:26;;;;;;;7.38;2.60;;;22.20;74.10;;;;;;5081695;28;20039;-70
2023/07/23 07:52:52;;;;;;;4.22;1.60;;;22.20;73.90;;;;;;5079646;28;20570;-73
2023/07/23 07:55:19;;;;;;;6.32;2.42;;;22.20;73.90;;;;;;5075933;28;20086;-70
2023/07/23 07:57:45;;;;;;;2.72;1.40;;;22.30;73.90;;;;;;5077830;28;20763;-70
2023/07/23 08:00:11;;;;;;;4.88;2.47;;;22.40;73.80;;;;;;5079859;28;20635;-70
2023/07/23 08:02:38;;;;;;;6.22;2.97;;;22.60;73.80;;;;;;5085782;28;20059;-69
2023/07/23 08:05:04;;;;;;;4.80;2.10;;;22.70;73.40;;;;;;5072575;28;20124;-70
2023/07/23 08:07:30;;;;;;;6.30;2.03;;;22.80;73.10;;;;;;5081589;28;20158;-71
2023/07/23 08:09:59;;;;;;;7.07;2.28;;;23.00;73.10;;;;;;5078889;28;20043;-71
2023/07/23 08:12:26;;;;;;;4.43;1.60;;;23.00;72.70;;;;;;5081011;28;20032;-70
2023/07/23 08:14:55;;;;;;;5.78;2.78;;;23.20;72.80;;;;;;5079170;28;20557;-70
2023/07/23 08:17:21;;;;;;;4.40;2.17;;;23.30;72.50;;;;;;5080946;28;20520;-71
2023/07/23 08:19:48;;;;;;;4.25;1.90;;;23.40;72.30;;;;;;5073595;28;20043;-72
2023/07/23 08:22:15;;;;;;;3.28;1.88;;;23.50;72.10;;;;;;5080914;28;20036;-70
2023/07/23 08:24:42;;;;;;;3.33;1.83;;;23.60;71.80;;;;;;5090087;28;20054;-70
2023/07/23 08:27:13;;;;;;;3.67;1.83;;;23.70;71.60;;;;;;5076982;28;20508;-69
2023/07/23 08:29:42;;;;;;;6.68;3.22;;;23.70;71.30;;;;;;5083344;28;20430;-72
2023/07/23 08:32:13;;;;;;;4.90;1.70;;;23.70;71.20;;;;;;5083826;28;20224;-71
2023/07/23 08:34:39;;;;;;;2.97;1.58;;;23.80;71.10;;;;;;5080750;28;20056;-72
2023/07/23 08:37:08;;;;;;;4.97;1.88;;;23.90;70.90;;;;;;5087359;28;20625;-73
2023/07/23 08:39:35;;;;;;;4.50;2.63;;;24.10;70.80;;;;;;5081498;28;20046;-71
2023/07/23 08:42:13;;;;;;;4.60;2.38;;;24.20;70.40;;;;;;5084067;28;20032;-71
2023/07/23 08:45:23;;;;;;;4.13;1.85;;;24.40;70.10;;;;;;5079558;28;20028;-71
2023/07/23 08:48:18;;;;;;;8.10;3.08;;;24.60;70.00;;;;;;5081883;28;20032;-76
2023/07/23 08:50:46;;;;;;;6.20;2.00;;;24.90;69.90;;;;;;5061318;28;20719;-75
2023/07/23 08:53:14;;;;;;;8.25;2.67;;;25.10;69.40;;;;;;5076097;28;20035;-71
2023/07/23 08:55:45;;;;;;;5.68;3.03;;;25.30;68.80;;;;;;5078644;28;20046;-71
2023/07/23 08:58:19;;;;;;;7.45;2.80;;;25.40;68.20;;;;;;5072151;28;20031;-72
2023/07/23 09:00:47;;;;;;;7.18;2.53;;;25.50;67.80;;;;;;5074610;28;20036;-68
2023/07/23 09:03:17;;;;;;;5.45;2.92;;;25.50;67.60;;;;;;5077381;28;20028;-72
2023/07/23 09:05:44;;;;;;;28.67;8.73;;;25.50;67.50;;;;;;5073772;28;20032;-68
2023/07/23 09:08:09;;;;;;;24.75;11.95;;;25.50;67.40;;;;;;5079643;28;20036;-70
2023/07/23 09:10:35;;;;;;;18.20;6.95;;;25.50;67.60;;;;;;5084494;28;20066;-69
2023/07/23 09:13:13;;;;;;;15.23;6.10;;;25.40;67.80;;;;;;5076116;28;20032;-71
2023/07/23 09:15:40;;;;;;;15.07;5.38;;;25.50;67.70;;;;;;5073837;28;20040;-68
2023/07/23 09:18:08;;;;;;;8.60;4.45;;;25.60;67.70;;;;;;5075282;28;20024;-70
2023/07/23 09:20:34;;;;;;;10.05;4.88;;;25.70;67.40;;;;;;5082234;28;20135;-69
2023/07/23 09:23:07;;;;;;;10.52;4.50;;;25.80;67.10;;;;;;5083385;28;20060;-70
2023/07/23 09:25:34;;;;;;;7.38;4.07;;;26.00;66.80;;;;;;5081845;28;20646;-74
2023/07/23 09:28:00;;;;;;;6.03;3.10;;;26.10;66.50;;;;;;5088183;28;20170;-69
2023/07/23 09:30:27;;;;;;;6.13;3.00;;;26.30;66.00;;;;;;5086915;28;20395;-72
2023/07/23 09:33:06;;;;;;;8.00;3.40;;;26.40;65.60;;;;;;5088458;28;20591;-69
2023/07/23 09:35:33;;;;;;;6.75;3.42;;;26.50;65.20;;;;;;5086827;28;20044;-76
2023/07/23 09:38:00;;;;;;;5.57;2.50;;;26.60;65.10;;;;;;5081962;28;20035;-70
2023/07/23 09:40:33;;;;;;;5.15;2.88;;;26.60;64.90;;;;;;5083083;28;20043;-72
2023/07/23 09:43:00;;;;;;;8.38;3.70;;;26.60;64.50;;;;;;5079592;28;20028;-75
2023/07/23 09:45:38;;;;;;;7.00;3.20;;;26.60;64.50;;;;;;5074220;28;20035;-70
2023/07/23 09:48:06;;;;;;;6.05;2.40;;;26.70;64.20;;;;;;5080447;28;20024;-69
2023/07/23 09:50:32;;;;;;;5.13;2.75;;;26.70;64.10;;;;;;5082172;28;20039;-69
2023/07/23 09:52:58;;;;;;;5.75;2.90;;;26.70;63.90;;;;;;5081043;28;20040;-68
2023/07/23 09:55:24;;;;;;;4.80;2.40;;;26.70;63.80;;;;;;5081896;28;20667;-66
2023/07/23 09:57:51;;;;;;;5.07;2.67;;;26.80;63.70;;;;;;5078521;28;20120;-69
2023/07/23 10:00:18;;;;;;;3.90;2.55;;;26.80;63.50;;;;;;5079165;28;20039;-71
2023/07/23 10:02:48;;;;;;;6.43;2.85;;;26.90;63.40;;;;;;5079120;28;20318;-67
2023/07/23 10:05:18;;;;;;;6.03;2.30;;;26.80;63.10;;;;;;5077087;28;20027;-70
2023/07/23 10:07:47;;;;;;;6.18;3.05;;;26.80;63.10;;;;;;5081300;28;20777;-68
2023/07/23 10:10:14;;;;;;;5.65;2.42;;;26.80;63.10;;;;;;5080966;28;20027;-66
2023/07/23 10:12:40;;;;;;;5.85;2.40;;;26.80;63.10;;;;;;5079832;28;20367;-68
2023/07/23 10:15:07;;;;;;;4.57;2.97;;;26.80;63.00;;;;;;5080645;28;20483;-68
2023/07/23 10:17:41;;;;;;;10.63;3.40;;;26.90;63.20;;;;;;5072511;28;20812;-66
2023/07/23 10:20:10;;;;;;;4.53;2.40;;;26.90;62.80;;;;;;5083994;28;20047;-71
2023/07/23 10:22:38;;;;;;;4.28;2.40;;;27.10;62.50;;;;;;5075970;28;20385;-70
2023/07/23 10:25:25;;;;;;;3.75;2.47;;;27.20;62.20;;;;;;5082721;28;20032;-70
2023/07/23 10:27:59;;;;;;;4.93;2.70;;;27.30;61.60;;;;;;5077008;28;20028;-67
2023/07/23 10:30:27;;;;;;;4.15;2.05;;;27.40;61.50;;;;;;5078551;28;20040;-69
2023/07/23 10:33:11;;;;;;;3.42;2.15;;;27.40;61.20;;;;;;5084127;28;20436;-68
2023/07/23 10:35:53;;;;;;;4.05;2.83;;;27.50;60.90;;;;;;5079336;28;20118;-67
2023/07/23 10:38:20;;;;;;;3.45;1.90;;;27.60;60.80;;;;;;5082374;28;20387;-67
2023/07/23 10:40:47;;;;;;;5.60;2.65;;;27.80;60.70;;;;;;5078849;28;20032;-66
2023/07/23 10:43:14;;;;;;;4.13;2.20;;;27.80;60.40;;;;;;5074688;28;20035;-68
2023/07/23 10:46:05;;;;;;;4.03;2.55;;;27.90;60.30;;;;;;5082316;28;20070;-70
2023/07/23 10:48:44;;;;;;;5.68;2.33;;;28.00;60.00;;;;;;5083135;28;20027;-68
2023/07/23 10:51:12;;;;;;;4.57;1.90;;;28.00;59.80;;;;;;5069441;28;20028;-68
2023/07/23 10:53:55;;;;;;;3.72;1.80;;;28.10;59.80;;;;;;5082849;28;20042;-70
2023/07/23 10:56:24;;;;;;;3.75;1.90;;;28.20;59.60;;;;;;5088486;28;20108;-70
2023/07/23 10:58:53;;;;;;;5.13;2.10;;;28.20;59.40;;;;;;5072950;28;20527;-72
2023/07/23 11:01:24;;;;;;;4.10;2.13;;;28.30;59.20;;;;;;5084135;28;20420;-69
2023/07/23 11:03:54;;;;;;;6.93;2.05;;;28.30;58.60;;;;;;5072733;28;20037;-69
2023/07/23 11:06:33;;;;;;;4.78;2.83;;;28.40;58.60;;;;;;5077856;28;20558;-70
2023/07/23 11:09:10;;;;;;;6.50;2.45;;;28.60;58.40;;;;;;5072883;28;20147;-69
2023/07/23 11:11:40;;;;;;;6.95;2.38;;;28.80;58.10;;;;;;5086267;28;20502;-68
2023/07/23 11:14:23;;;;;;;6.90;1.73;;;28.90;58.00;;;;;;5077098;28;20083;-71
2023/07/23 11:16:52;;;;;;;4.72;1.90;;;29.00;57.30;;;;;;5077931;28;20354;-71
2023/07/23 11:19:19;;;;;;;4.63;1.85;;;29.00;57.00;;;;;;5078712;28;20047;-71
2023/07/23 11:21:56;;;;;;;3.05;1.60;;;29.00;56.50;;;;;;5080555;28;20042;-73
2023/07/23 11:24:23;;;;;;;2.42;1.05;;;28.90;56.10;;;;;;5078959;28;20039;-74
2023/07/23 11:26:50;;;;;;;5.50;2.05;;;28.90;56.00;;;;;;5088361;28;20404;-70
2023/07/23 11:29:16;;;;;;;2.53;1.13;;;28.70;55.80;;;;;;5086209;28;20507;-73
2023/07/23 11:31:44;;;;;;;4.47;1.50;;;28.50;55.70;;;;;;5091852;28;20073;-72
2023/07/23 11:34:12;;;;;;;2.97;1.20;;;28.30;55.80;;;;;;5083208;28;20729;-71
2023/07/23 11:36:40;;;;;;;2.05;1.38;;;28.10;56.50;;;;;;5086264;28;20028;-73
2023/07/23 11:39:06;;;;;;;6.15;2.33;;;27.90;56.10;;;;;;5074300;28;20044;-72
2023/07/23 11:41:38;;;;;;;5.55;1.67;;;27.70;56.20;;;;;;5077488;28;20487;-71
2023/07/23 11:44:04;;;;;;;4.03;1.65;;;27.50;56.40;;;;;;5071856;28;20035;-71
2023/07/23 11:46:36;;;;;;;6.65;1.95;;;27.40;56.80;;;;;;5073114;28;20067;-70
2023/07/23 11:49:06;;;;;;;5.65;2.03;;;27.30;57.10;;;;;;5079005;28;20032;-70
2023/07/23 11:51:33;;;;;;;4.82;1.73;;;27.40;57.20;;;;;;5087969;28;20028;-70
2023/07/23 11:54:08;;;;;;;4.88;1.90;;;27.50;57.20;;;;;;5082271;28;20127;-74
2023/07/23 11:56:38;;;;;;;4.95;2.10;;;27.50;57.00;;;;;;5084563;28;20036;-75
2023/07/23 11:59:06;;;;;;;4.97;2.08;;;27.70;56.80;;;;;;5065794;28;20125;-70
2023/07/23 12:01:35;;;;;;;4.05;1.42;;;27.90;56.50;;;;;;5072845;28;20055;-71
2023/07/23 12:04:03;;;;;;;2.90;1.40;;;28.00;55.90;;;;;;5073971;28;20711;-71
2023/07/23 12:06:31;;;;;;;3.65;1.75;;;28.10;55.70;;;;;;5077881;28;20039;-69
2023/07/23 12:08:57;;;;;;;2.13;1.33;;;28.20;55.60;;;;;;5079088;28;20050;-70
2023/07/23 12:11:28;;;;;;;4.40;1.60;;;28.20;55.30;;;;;;5076094;28;20534;-70
2023/07/23 12:13:56;;;;;;;2.78;1.35;;;28.20;55.20;;;;;;5071570;28;20036;-70
2023/07/23 12:16:35;;;;;;;4.68;1.92;;;28.10;55.00;;;;;;5091670;28;20039;-70
2023/07/23 12:19:07;;;;;;;3.17;1.48;;;28.10;54.90;;;;;;5075674;28;21161;-70
2023/07/23 12:21:38;;;;;;;3.03;1.15;;;28.10;54.90;;;;;;5078212;28;20039;-70
2023/07/23 12:24:14;;;;;;;1.95;1.00;;;28.00;54.90;;;;;;5080392;28;20031;-70
2023/07/23 12:26:40;;;;;;;2.88;1.60;;;28.10;54.80;;;;;;5080649;28;20032;-71
2023/07/23 12:29:06;;;;;;;2.30;1.58;;;28.10;54.80;;;;;;5077861;28;20552;-70
2023/07/23 12:31:38;;;;;;;2.25;1.33;;;28.10;54.80;;;;;;5085483;28;20086;-72
2023/07/23 12:34:05;;;;;;;3.45;1.38;;;28.10;54.70;;;;;;5078653;28;20052;-71
2023/07/23 12:36:31;;;;;;;1.98;1.33;;;28.00;54.60;;;;;;5075975;28;21042;-71
2023/07/23 12:38:57;;;;;;;2.70;1.42;;;28.00;55.30;;;;;;5082215;28;20036;-72
2023/07/23 12:41:22;;;;;;;1.63;1.00;;;27.90;54.70;;;;;;5078734;28;20055;-73
2023/07/23 12:43:48;;;;;;;2.55;0.95;;;27.80;54.90;;;;;;5078290;28;20072;-76
2023/07/23 12:46:14;;;;;;;2.72;1.00;;;27.70;55.00;;;;;;5075960;28;20028;-73
2023/07/23 12:48:41;;;;;;;1.52;1.00;;;27.80;55.00;;;;;;5076140;28;20483;-76